Terminal Aerodrome Forecast
Issued by NWS Boston, MA

Current Version | Previous Version | Text Only | Print | Product List | Glossary On
Versions: 1 2 3 4 5 6 7 8 9 10 11 12 13 14 15 16 17 18 19 20 21 22 23 24 25 26 27
000 FTUS41 KBOX 181122 TAFPVD TAF KPVD 181122Z 1812/1912 04009KT P6SM BKN025 FM181800 10007KT P6SM BKN050 FM190100 16005KT P6SM BKN150 FM190500 22004KT P6SM SCT140 FM191100 29006KT P6SM SCT250=

USA.gov is the U.S. government's official web portal to all federal, state and local government web resources and services.